Terminal Aerodrome Forecast
Issued by NWS

Home | Current Version | Previous Version | Text Only | Print | Product List | Glossary On
Versions: 1 2 3 4 5 6 7 8 9 10 11 12 13 14 15 16 17 18 19 20
000
FTUS41 KOKX 011500 AAB
TAFSWF
TAF AMD
KSWF 011547Z 0116/0218 VRB03KT 1SM -SN BKN005
      TEMPO 0121/0201 1/2SM SN
     FM020300 VRB03KT 2SM -SN OVC010
     FM020600 27008KT 4SM BR OVC020
     FM021400 29015G25KT P6SM BKN025
      AMD NOT SKED=

USA.gov is the U.S. government's official web portal to all federal, state and local government web resources and services.